sensor_id;sensor_type;location;lat;lon;timestamp;P1;durP1;ratioP1;P2;durP2;ratioP2
11988;SDS011;6054;50.966;7.094;2023-01-23T00:01:00;19.00;;;12.77;;
11988;SDS011;6054;50.966;7.094;2023-01-23T00:03:28;17.47;;;12.97;;
11988;SDS011;6054;50.966;7.094;2023-01-23T00:05:56;20.30;;;12.50;;
11988;SDS011;6054;50.966;7.094;2023-01-23T00:08:23;17.63;;;11.63;;
11988;SDS011;6054;50.966;7.094;2023-01-23T00:10:50;17.47;;;11.93;;
11988;SDS011;6054;50.966;7.094;2023-01-23T00:13:18;17.90;;;11.70;;
11988;SDS011;6054;50.966;7.094;2023-01-23T00:15:45;18.27;;;12.20;;
11988;SDS011;6054;50.966;7.094;2023-01-23T00:18:12;17.83;;;12.07;;
11988;SDS011;6054;50.966;7.094;2023-01-23T00:20:39;16.67;;;11.90;;
11988;SDS011;6054;50.966;7.094;2023-01-23T00:23:07;17.87;;;12.57;;
11988;SDS011;6054;50.966;7.094;2023-01-23T00:25:34;17.83;;;12.40;;
11988;SDS011;6054;50.966;7.094;2023-01-23T00:28:01;17.57;;;11.73;;
11988;SDS011;6054;50.966;7.094;2023-01-23T00:30:29;18.23;;;12.13;;
11988;SDS011;6054;50.966;7.094;2023-01-23T00:32:56;15.97;;;10.43;;
11988;SDS011;6054;50.966;7.094;2023-01-23T00:35:23;16.30;;;11.40;;
11988;SDS011;6054;50.966;7.094;2023-01-23T00:37:50;19.27;;;11.90;;
11988;SDS011;6054;50.966;7.094;2023-01-23T00:40:16;18.13;;;11.80;;
11988;SDS011;6054;50.966;7.094;2023-01-23T00:42:43;16.73;;;11.77;;
11988;SDS011;6054;50.966;7.094;2023-01-23T00:45:10;15.67;;;11.37;;
11988;SDS011;6054;50.966;7.094;2023-01-23T00:47:38;19.47;;;12.80;;
11988;SDS011;6054;50.966;7.094;2023-01-23T00:50:05;17.30;;;12.23;;
11988;SDS011;6054;50.966;7.094;2023-01-23T00:52:33;17.30;;;12.30;;
11988;SDS011;6054;50.966;7.094;2023-01-23T00:54:59;17.80;;;12.27;;
11988;SDS011;6054;50.966;7.094;2023-01-23T00:57:26;16.20;;;11.93;;
11988;SDS011;6054;50.966;7.094;2023-01-23T00:59:54;18.60;;;12.37;;
11988;SDS011;6054;50.966;7.094;2023-01-23T01:02:21;17.47;;;12.03;;
11988;SDS011;6054;50.966;7.094;2023-01-23T01:04:49;19.23;;;12.63;;
11988;SDS011;6054;50.966;7.094;2023-01-23T01:07:15;15.87;;;11.43;;
11988;SDS011;6054;50.966;7.094;2023-01-23T01:09:42;16.93;;;12.30;;
11988;SDS011;6054;50.966;7.094;2023-01-23T01:12:09;17.60;;;11.93;;
11988;SDS011;6054;50.966;7.094;2023-01-23T01:14:35;16.37;;;11.53;;
11988;SDS011;6054;50.966;7.094;2023-01-23T01:17:02;17.03;;;12.03;;
11988;SDS011;6054;50.966;7.094;2023-01-23T01:19:29;18.20;;;12.63;;
11988;SDS011;6054;50.966;7.094;2023-01-23T01:21:57;16.80;;;11.60;;
11988;SDS011;6054;50.966;7.094;2023-01-23T01:24:24;19.47;;;12.50;;
11988;SDS011;6054;50.966;7.094;2023-01-23T01:26:51;16.50;;;11.53;;
11988;SDS011;6054;50.966;7.094;2023-01-23T01:29:17;19.60;;;12.60;;
11988;SDS011;6054;50.966;7.094;2023-01-23T01:31:44;17.23;;;11.57;;
11988;SDS011;6054;50.966;7.094;2023-01-23T01:34:11;18.70;;;12.57;;
11988;SDS011;6054;50.966;7.094;2023-01-23T01:36:38;17.73;;;12.00;;
11988;SDS011;6054;50.966;7.094;2023-01-23T01:39:06;19.00;;;12.57;;
11988;SDS011;6054;50.966;7.094;2023-01-23T01:41:32;18.50;;;12.73;;
11988;SDS011;6054;50.966;7.094;2023-01-23T01:43:59;19.20;;;12.93;;
11988;SDS011;6054;50.966;7.094;2023-01-23T01:46:27;19.23;;;13.00;;
11988;SDS011;6054;50.966;7.094;2023-01-23T01:49:01;19.67;;;12.90;;
11988;SDS011;6054;50.966;7.094;2023-01-23T01:51:32;18.73;;;12.63;;
11988;SDS011;6054;50.966;7.094;2023-01-23T01:54:07;17.53;;;12.87;;
11988;SDS011;6054;50.966;7.094;2023-01-23T01:56:40;21.83;;;13.67;;
11988;SDS011;6054;50.966;7.094;2023-01-23T01:59:12;18.97;;;13.20;;
11988;SDS011;6054;50.966;7.094;2023-01-23T02:01:40;21.60;;;13.00;;
11988;SDS011;6054;50.966;7.094;2023-01-23T02:04:10;19.90;;;13.67;;
11988;SDS011;6054;50.966;7.094;2023-01-23T02:06:37;19.43;;;13.03;;
11988;SDS011;6054;50.966;7.094;2023-01-23T02:09:07;19.00;;;12.83;;
11988;SDS011;6054;50.966;7.094;2023-01-23T02:11:40;20.13;;;12.63;;
11988;SDS011;6054;50.966;7.094;2023-01-23T02:14:07;20.63;;;13.43;;
11988;SDS011;6054;50.966;7.094;2023-01-23T02:16:34;20.50;;;13.43;;
11988;SDS011;6054;50.966;7.094;2023-01-23T02:19:09;20.03;;;13.23;;
11988;SDS011;6054;50.966;7.094;2023-01-23T02:21:41;18.67;;;13.27;;
11988;SDS011;6054;50.966;7.094;2023-01-23T02:24:13;20.77;;;13.33;;
11988;SDS011;6054;50.966;7.094;2023-01-23T02:26:47;19.83;;;13.97;;
11988;SDS011;6054;50.966;7.094;2023-01-23T02:29:14;20.20;;;13.80;;
11988;SDS011;6054;50.966;7.094;2023-01-23T02:31:43;18.63;;;13.00;;
11988;SDS011;6054;50.966;7.094;2023-01-23T02:34:11;20.30;;;13.27;;
11988;SDS011;6054;50.966;7.094;2023-01-23T02:36:38;19.80;;;12.83;;
11988;SDS011;6054;50.966;7.094;2023-01-23T02:39:08;18.27;;;12.97;;
11988;SDS011;6054;50.966;7.094;2023-01-23T02:41:38;18.40;;;12.93;;
11988;SDS011;6054;50.966;7.094;2023-01-23T02:44:10;20.20;;;13.03;;
11988;SDS011;6054;50.966;7.094;2023-01-23T02:46:40;18.37;;;12.87;;
11988;SDS011;6054;50.966;7.094;2023-01-23T02:49:07;19.17;;;13.33;;
11988;SDS011;6054;50.966;7.094;2023-01-23T02:51:35;19.10;;;12.63;;
11988;SDS011;6054;50.966;7.094;2023-01-23T02:54:01;20.33;;;13.73;;
11988;SDS011;6054;50.966;7.094;2023-01-23T02:56:29;20.10;;;13.27;;
11988;SDS011;6054;50.966;7.094;2023-01-23T02:58:55;21.90;;;13.43;;
11988;SDS011;6054;50.966;7.094;2023-01-23T03:01:41;16.87;;;12.20;;
11988;SDS011;6054;50.966;7.094;2023-01-23T03:04:08;20.47;;;12.80;;
11988;SDS011;6054;50.966;7.094;2023-01-23T03:06:35;20.07;;;12.77;;
11988;SDS011;6054;50.966;7.094;2023-01-23T03:09:03;18.70;;;12.37;;
11988;SDS011;6054;50.966;7.094;2023-01-23T03:11:33;19.13;;;12.57;;
11988;SDS011;6054;50.966;7.094;2023-01-23T03:14:00;18.27;;;12.27;;
11988;SDS011;6054;50.966;7.094;2023-01-23T03:16:27;19.93;;;13.00;;
11988;SDS011;6054;50.966;7.094;2023-01-23T03:18:55;17.73;;;12.77;;
11988;SDS011;6054;50.966;7.094;2023-01-23T03:21:25;19.60;;;13.13;;
11988;SDS011;6054;50.966;7.094;2023-01-23T03:23:52;18.10;;;12.27;;
11988;SDS011;6054;50.966;7.094;2023-01-23T03:26:19;17.87;;;12.57;;
11988;SDS011;6054;50.966;7.094;2023-01-23T03:28:45;16.90;;;12.20;;
11988;SDS011;6054;50.966;7.094;2023-01-23T03:31:30;18.53;;;12.40;;
11988;SDS011;6054;50.966;7.094;2023-01-23T03:33:58;19.60;;;13.00;;
11988;SDS011;6054;50.966;7.094;2023-01-23T03:36:24;18.13;;;12.77;;
11988;SDS011;6054;50.966;7.094;2023-01-23T03:38:51;19.33;;;12.07;;
11988;SDS011;6054;50.966;7.094;2023-01-23T03:41:35;17.53;;;12.23;;
11988;SDS011;6054;50.966;7.094;2023-01-23T03:44:06;17.83;;;11.93;;
11988;SDS011;6054;50.966;7.094;2023-01-23T03:46:32;20.67;;;12.47;;
11988;SDS011;6054;50.966;7.094;2023-01-23T03:49:01;21.43;;;12.37;;
11988;SDS011;6054;50.966;7.094;2023-01-23T03:51:28;19.30;;;12.90;;
11988;SDS011;6054;50.966;7.094;2023-01-23T03:53:55;18.03;;;12.10;;
11988;SDS011;6054;50.966;7.094;2023-01-23T03:56:21;18.77;;;11.67;;
11988;SDS011;6054;50.966;7.094;2023-01-23T03:58:48;18.70;;;12.33;;
11988;SDS011;6054;50.966;7.094;2023-01-23T04:01:15;17.73;;;12.17;;
11988;SDS011;6054;50.966;7.094;2023-01-23T04:03:42;19.23;;;12.37;;
11988;SDS011;6054;50.966;7.094;2023-01-23T04:06:10;19.87;;;12.67;;
11988;SDS011;6054;50.966;7.094;2023-01-23T04:08:37;20.70;;;11.87;;
11988;SDS011;6054;50.966;7.094;2023-01-23T04:11:04;19.03;;;12.60;;
11988;SDS011;6054;50.966;7.094;2023-01-23T04:13:32;17.63;;;12.23;;
11988;SDS011;6054;50.966;7.094;2023-01-23T04:15:59;18.13;;;11.83;;
11988;SDS011;6054;50.966;7.094;2023-01-23T04:18:27;19.13;;;12.77;;
11988;SDS011;6054;50.966;7.094;2023-01-23T04:20:54;17.23;;;12.07;;
11988;SDS011;6054;50.966;7.094;2023-01-23T04:23:22;17.43;;;11.67;;
11988;SDS011;6054;50.966;7.094;2023-01-23T04:25:50;16.50;;;11.07;;
11988;SDS011;6054;50.966;7.094;2023-01-23T04:28:17;21.83;;;11.53;;
11988;SDS011;6054;50.966;7.094;2023-01-23T04:30:44;17.40;;;11.57;;
11988;SDS011;6054;50.966;7.094;2023-01-23T04:33:11;17.93;;;11.70;;
11988;SDS011;6054;50.966;7.094;2023-01-23T04:35:38;17.70;;;12.20;;
11988;SDS011;6054;50.966;7.094;2023-01-23T04:38:04;21.60;;;12.00;;
11988;SDS011;6054;50.966;7.094;2023-01-23T04:40:32;18.60;;;11.57;;
11988;SDS011;6054;50.966;7.094;2023-01-23T04:42:59;18.40;;;12.27;;
11988;SDS011;6054;50.966;7.094;2023-01-23T04:45:26;16.83;;;11.63;;
11988;SDS011;6054;50.966;7.094;2023-01-23T04:47:53;19.43;;;12.07;;
11988;SDS011;6054;50.966;7.094;2023-01-23T04:50:19;18.63;;;12.20;;
11988;SDS011;6054;50.966;7.094;2023-01-23T04:52:46;17.00;;;11.90;;
11988;SDS011;6054;50.966;7.094;2023-01-23T04:55:13;17.53;;;11.57;;
11988;SDS011;6054;50.966;7.094;2023-01-23T04:57:41;17.70;;;11.00;;
11988;SDS011;6054;50.966;7.094;2023-01-23T05:00:08;18.33;;;11.60;;
11988;SDS011;6054;50.966;7.094;2023-01-23T05:02:36;18.57;;;11.53;;
11988;SDS011;6054;50.966;7.094;2023-01-23T05:05:02;17.43;;;11.80;;
11988;SDS011;6054;50.966;7.094;2023-01-23T05:07:30;18.60;;;11.10;;
11988;SDS011;6054;50.966;7.094;2023-01-23T05:09:57;16.77;;;10.90;;
11988;SDS011;6054;50.966;7.094;2023-01-23T05:12:23;16.97;;;11.10;;
11988;SDS011;6054;50.966;7.094;2023-01-23T05:14:52;17.23;;;11.63;;
11988;SDS011;6054;50.966;7.094;2023-01-23T05:17:18;16.80;;;10.70;;
11988;SDS011;6054;50.966;7.094;2023-01-23T05:19:45;17.73;;;11.33;;
11988;SDS011;6054;50.966;7.094;2023-01-23T05:22:12;20.33;;;11.97;;
11988;SDS011;6054;50.966;7.094;2023-01-23T05:24:38;17.00;;;10.67;;
11988;SDS011;6054;50.966;7.094;2023-01-23T05:27:05;18.57;;;12.00;;
11988;SDS011;6054;50.966;7.094;2023-01-23T05:29:32;17.07;;;11.97;;
11988;SDS011;6054;50.966;7.094;2023-01-23T05:32:00;16.67;;;11.07;;
11988;SDS011;6054;50.966;7.094;2023-01-23T05:34:27;18.40;;;10.90;;
11988;SDS011;6054;50.966;7.094;2023-01-23T05:36:54;16.90;;;10.13;;
11988;SDS011;6054;50.966;7.094;2023-01-23T05:39:20;16.90;;;10.37;;
11988;SDS011;6054;50.966;7.094;2023-01-23T05:41:47;16.60;;;10.83;;
11988;SDS011;6054;50.966;7.094;2023-01-23T05:44:14;19.53;;;11.00;;
11988;SDS011;6054;50.966;7.094;2023-01-23T05:46:41;17.83;;;11.60;;
11988;SDS011;6054;50.966;7.094;2023-01-23T05:49:09;16.33;;;11.20;;
11988;SDS011;6054;50.966;7.094;2023-01-23T05:51:36;18.07;;;11.43;;
11988;SDS011;6054;50.966;7.094;2023-01-23T05:54:02;17.50;;;11.73;;
11988;SDS011;6054;50.966;7.094;2023-01-23T05:56:29;17.63;;;11.40;;
11988;SDS011;6054;50.966;7.094;2023-01-23T05:58:56;18.10;;;11.60;;
11988;SDS011;6054;50.966;7.094;2023-01-23T06:01:23;18.63;;;11.73;;
11988;SDS011;6054;50.966;7.094;2023-01-23T06:03:50;17.93;;;11.30;;
11988;SDS011;6054;50.966;7.094;2023-01-23T06:06:18;19.17;;;11.47;;
11988;SDS011;6054;50.966;7.094;2023-01-23T06:08:45;18.80;;;11.93;;
11988;SDS011;6054;50.966;7.094;2023-01-23T06:11:11;16.27;;;11.07;;
11988;SDS011;6054;50.966;7.094;2023-01-23T06:13:38;17.77;;;11.70;;
11988;SDS011;6054;50.966;7.094;2023-01-23T06:16:05;17.10;;;11.23;;
11988;SDS011;6054;50.966;7.094;2023-01-23T06:18:33;16.93;;;11.70;;
11988;SDS011;6054;50.966;7.094;2023-01-23T06:21:00;18.50;;;11.87;;
11988;SDS011;6054;50.966;7.094;2023-01-23T06:23:29;17.20;;;11.57;;
11988;SDS011;6054;50.966;7.094;2023-01-23T06:25:57;17.30;;;11.67;;
11988;SDS011;6054;50.966;7.094;2023-01-23T06:28:25;17.23;;;11.40;;
11988;SDS011;6054;50.966;7.094;2023-01-23T06:30:52;17.37;;;11.30;;
11988;SDS011;6054;50.966;7.094;2023-01-23T06:33:19;15.53;;;10.67;;
11988;SDS011;6054;50.966;7.094;2023-01-23T06:35:46;16.53;;;11.37;;
11988;SDS011;6054;50.966;7.094;2023-01-23T06:38:13;15.47;;;10.70;;
11988;SDS011;6054;50.966;7.094;2023-01-23T06:40:41;16.97;;;11.27;;
11988;SDS011;6054;50.966;7.094;2023-01-23T06:43:09;17.13;;;11.23;;
11988;SDS011;6054;50.966;7.094;2023-01-23T06:45:35;15.03;;;10.50;;
11988;SDS011;6054;50.966;7.094;2023-01-23T06:48:02;15.73;;;10.80;;
11988;SDS011;6054;50.966;7.094;2023-01-23T06:50:29;14.27;;;10.57;;
11988;SDS011;6054;50.966;7.094;2023-01-23T06:52:56;16.33;;;10.77;;
11988;SDS011;6054;50.966;7.094;2023-01-23T06:55:22;15.87;;;10.67;;
11988;SDS011;6054;50.966;7.094;2023-01-23T06:57:50;16.40;;;11.23;;
11988;SDS011;6054;50.966;7.094;2023-01-23T07:00:17;14.40;;;10.57;;
11988;SDS011;6054;50.966;7.094;2023-01-23T07:02:45;15.23;;;10.83;;
11988;SDS011;6054;50.966;7.094;2023-01-23T07:05:12;17.60;;;10.33;;
11988;SDS011;6054;50.966;7.094;2023-01-23T07:07:38;16.00;;;11.03;;
11988;SDS011;6054;50.966;7.094;2023-01-23T07:10:06;15.87;;;10.77;;
11988;SDS011;6054;50.966;7.094;2023-01-23T07:12:33;14.53;;;10.30;;
11988;SDS011;6054;50.966;7.094;2023-01-23T07:15:02;15.10;;;10.73;;
11988;SDS011;6054;50.966;7.094;2023-01-23T07:17:29;17.43;;;10.90;;
11988;SDS011;6054;50.966;7.094;2023-01-23T07:19:56;14.57;;;10.33;;
11988;SDS011;6054;50.966;7.094;2023-01-23T07:22:22;14.30;;;10.37;;
11988;SDS011;6054;50.966;7.094;2023-01-23T07:24:49;14.87;;;10.30;;
11988;SDS011;6054;50.966;7.094;2023-01-23T07:27:16;14.53;;;10.27;;
11988;SDS011;6054;50.966;7.094;2023-01-23T07:29:43;14.10;;;10.03;;
11988;SDS011;6054;50.966;7.094;2023-01-23T07:32:11;13.23;;;9.87;;
11988;SDS011;6054;50.966;7.094;2023-01-23T07:34:37;12.60;;;9.50;;
11988;SDS011;6054;50.966;7.094;2023-01-23T07:37:04;12.43;;;9.17;;
11988;SDS011;6054;50.966;7.094;2023-01-23T07:39:31;12.63;;;9.63;;
11988;SDS011;6054;50.966;7.094;2023-01-23T07:41:58;14.30;;;9.40;;
11988;SDS011;6054;50.966;7.094;2023-01-23T07:44:24;13.50;;;10.27;;
11988;SDS011;6054;50.966;7.094;2023-01-23T07:46:51;14.70;;;10.30;;
11988;SDS011;6054;50.966;7.094;2023-01-23T07:49:19;13.47;;;9.93;;
11988;SDS011;6054;50.966;7.094;2023-01-23T07:51:46;12.33;;;9.57;;
11988;SDS011;6054;50.966;7.094;2023-01-23T07:54:13;14.27;;;9.80;;
11988;SDS011;6054;50.966;7.094;2023-01-23T07:56:40;14.70;;;9.93;;
11988;SDS011;6054;50.966;7.094;2023-01-23T07:59:07;12.77;;;9.73;;
11988;SDS011;6054;50.966;7.094;2023-01-23T08:01:33;13.30;;;9.60;;
11988;SDS011;6054;50.966;7.094;2023-01-23T08:04:00;14.00;;;9.93;;
11988;SDS011;6054;50.966;7.094;2023-01-23T08:06:28;12.40;;;9.27;;
11988;SDS011;6054;50.966;7.094;2023-01-23T08:08:55;13.13;;;9.63;;
11988;SDS011;6054;50.966;7.094;2023-01-23T08:11:21;11.43;;;9.23;;
11988;SDS011;6054;50.966;7.094;2023-01-23T08:13:50;12.53;;;9.43;;
11988;SDS011;6054;50.966;7.094;2023-01-23T08:16:17;12.50;;;9.00;;
11988;SDS011;6054;50.966;7.094;2023-01-23T08:18:44;13.30;;;9.67;;
11988;SDS011;6054;50.966;7.094;2023-01-23T08:21:11;15.57;;;10.17;;
11988;SDS011;6054;50.966;7.094;2023-01-23T08:23:39;11.53;;;9.20;;
11988;SDS011;6054;50.966;7.094;2023-01-23T08:26:07;11.93;;;9.33;;
11988;SDS011;6054;50.966;7.094;2023-01-23T08:28:37;13.13;;;9.53;;
11988;SDS011;6054;50.966;7.094;2023-01-23T08:31:05;11.80;;;9.13;;
11988;SDS011;6054;50.966;7.094;2023-01-23T08:33:33;13.27;;;9.90;;
11988;SDS011;6054;50.966;7.094;2023-01-23T08:36:00;12.97;;;9.33;;
11988;SDS011;6054;50.966;7.094;2023-01-23T08:38:27;13.23;;;9.53;;
11988;SDS011;6054;50.966;7.094;2023-01-23T08:40:58;12.23;;;9.30;;
11988;SDS011;6054;50.966;7.094;2023-01-23T08:43:26;13.03;;;10.00;;
11988;SDS011;6054;50.966;7.094;2023-01-23T08:45:54;12.77;;;9.50;;
11988;SDS011;6054;50.966;7.094;2023-01-23T08:48:22;13.93;;;10.20;;
11988;SDS011;6054;50.966;7.094;2023-01-23T08:50:50;13.47;;;9.03;;
11988;SDS011;6054;50.966;7.094;2023-01-23T08:53:17;12.37;;;9.83;;
11988;SDS011;6054;50.966;7.094;2023-01-23T08:55:44;13.07;;;9.17;;
11988;SDS011;6054;50.966;7.094;2023-01-23T08:58:12;14.53;;;10.30;;
11988;SDS011;6054;50.966;7.094;2023-01-23T09:00:39;12.73;;;9.60;;
11988;SDS011;6054;50.966;7.094;2023-01-23T09:03:06;14.33;;;10.10;;
11988;SDS011;6054;50.966;7.094;2023-01-23T09:05:32;13.63;;;10.90;;
11988;SDS011;6054;50.966;7.094;2023-01-23T09:08:00;13.97;;;10.50;;
11988;SDS011;6054;50.966;7.094;2023-01-23T09:10:27;12.83;;;9.53;;
11988;SDS011;6054;50.966;7.094;2023-01-23T09:12:54;13.40;;;9.83;;
11988;SDS011;6054;50.966;7.094;2023-01-23T09:15:22;12.83;;;10.23;;
11988;SDS011;6054;50.966;7.094;2023-01-23T09:17:49;12.33;;;9.63;;
11988;SDS011;6054;50.966;7.094;2023-01-23T09:20:16;13.90;;;10.73;;
11988;SDS011;6054;50.966;7.094;2023-01-23T09:22:43;14.17;;;10.63;;
11988;SDS011;6054;50.966;7.094;2023-01-23T09:25:10;14.40;;;10.30;;
11988;SDS011;6054;50.966;7.094;2023-01-23T09:27:37;10.83;;;8.97;;
11988;SDS011;6054;50.966;7.094;2023-01-23T09:30:04;14.20;;;10.33;;
11988;SDS011;6054;50.966;7.094;2023-01-23T09:32:32;13.37;;;10.47;;
11988;SDS011;6054;50.966;7.094;2023-01-23T09:35:00;13.37;;;10.43;;
11988;SDS011;6054;50.966;7.094;2023-01-23T09:37:28;14.13;;;10.20;;
11988;SDS011;6054;50.966;7.094;2023-01-23T09:40:15;14.47;;;11.10;;
11988;SDS011;6054;50.966;7.094;2023-01-23T09:42:43;14.50;;;10.50;;
11988;SDS011;6054;50.966;7.094;2023-01-23T09:45:11;14.07;;;10.37;;
11988;SDS011;6054;50.966;7.094;2023-01-23T09:47:46;12.43;;;9.93;;
11988;SDS011;6054;50.966;7.094;2023-01-23T09:50:20;12.07;;;9.57;;
11988;SDS011;6054;50.966;7.094;2023-01-23T09:52:51;12.93;;;9.50;;
11988;SDS011;6054;50.966;7.094;2023-01-23T09:55:26;14.37;;;10.60;;
11988;SDS011;6054;50.966;7.094;2023-01-23T09:58:00;12.73;;;10.03;;
11988;SDS011;6054;50.966;7.094;2023-01-23T10:00:30;13.43;;;10.33;;
11988;SDS011;6054;50.966;7.094;2023-01-23T10:03:02;12.20;;;9.07;;
11988;SDS011;6054;50.966;7.094;2023-01-23T10:05:38;12.80;;;10.00;;
11988;SDS011;6054;50.966;7.094;2023-01-23T10:08:14;12.63;;;9.33;;
11988;SDS011;6054;50.966;7.094;2023-01-23T10:10:52;11.83;;;8.90;;
11988;SDS011;6054;50.966;7.094;2023-01-23T10:13:31;14.50;;;9.97;;
11988;SDS011;6054;50.966;7.094;2023-01-23T10:16:13;12.27;;;9.27;;
11988;SDS011;6054;50.966;7.094;2023-01-23T10:18:56;19.10;;;10.00;;
11988;SDS011;6054;50.966;7.094;2023-01-23T10:21:32;11.57;;;9.13;;
11988;SDS011;6054;50.966;7.094;2023-01-23T10:24:07;12.47;;;9.53;;
11988;SDS011;6054;50.966;7.094;2023-01-23T10:26:51;12.47;;;8.97;;
11988;SDS011;6054;50.966;7.094;2023-01-23T10:29:27;12.03;;;8.63;;
11988;SDS011;6054;50.966;7.094;2023-01-23T10:31:57;13.47;;;9.53;;
11988;SDS011;6054;50.966;7.094;2023-01-23T10:34:27;11.63;;;8.37;;
11988;SDS011;6054;50.966;7.094;2023-01-23T10:37:04;12.40;;;9.13;;
11988;SDS011;6054;50.966;7.094;2023-01-23T10:39:42;11.90;;;9.20;;
11988;SDS011;6054;50.966;7.094;2023-01-23T10:42:14;11.07;;;8.50;;
11988;SDS011;6054;50.966;7.094;2023-01-23T10:44:46;10.80;;;8.27;;
11988;SDS011;6054;50.966;7.094;2023-01-23T10:47:14;11.80;;;8.67;;
11988;SDS011;6054;50.966;7.094;2023-01-23T10:49:47;12.40;;;9.20;;
11988;SDS011;6054;50.966;7.094;2023-01-23T10:52:27;10.57;;;8.37;;
11988;SDS011;6054;50.966;7.094;2023-01-23T10:54:56;10.37;;;8.07;;
11988;SDS011;6054;50.966;7.094;2023-01-23T10:57:24;11.23;;;7.93;;
11988;SDS011;6054;50.966;7.094;2023-01-23T10:59:53;9.80;;;7.97;;
11988;SDS011;6054;50.966;7.094;2023-01-23T11:02:25;10.30;;;8.27;;
11988;SDS011;6054;50.966;7.094;2023-01-23T11:04:54;10.63;;;8.50;;
11988;SDS011;6054;50.966;7.094;2023-01-23T11:07:22;12.20;;;8.67;;
11988;SDS011;6054;50.966;7.094;2023-01-23T11:09:51;11.43;;;8.13;;
11988;SDS011;6054;50.966;7.094;2023-01-23T11:12:21;11.97;;;7.80;;
11988;SDS011;6054;50.966;7.094;2023-01-23T11:14:49;11.50;;;8.23;;
11988;SDS011;6054;50.966;7.094;2023-01-23T11:17:21;10.10;;;8.00;;
11988;SDS011;6054;50.966;7.094;2023-01-23T11:19:49;10.27;;;7.70;;
11988;SDS011;6054;50.966;7.094;2023-01-23T11:22:27;9.20;;;8.03;;
11988;SDS011;6054;50.966;7.094;2023-01-23T11:24:56;10.83;;;8.13;;
11988;SDS011;6054;50.966;7.094;2023-01-23T11:27:24;10.00;;;7.57;;
11988;SDS011;6054;50.966;7.094;2023-01-23T11:30:12;7.73;;;6.33;;
11988;SDS011;6054;50.966;7.094;2023-01-23T11:32:58;9.17;;;7.40;;
11988;SDS011;6054;50.966;7.094;2023-01-23T11:35:40;8.33;;;7.40;;
11988;SDS011;6054;50.966;7.094;2023-01-23T11:38:24;9.03;;;7.00;;
11988;SDS011;6054;50.966;7.094;2023-01-23T11:40:52;5.77;;;5.17;;
11988;SDS011;6054;50.966;7.094;2023-01-23T11:43:19;6.50;;;5.70;;
11988;SDS011;6054;50.966;7.094;2023-01-23T11:45:49;7.70;;;5.90;;
11988;SDS011;6054;50.966;7.094;2023-01-23T11:48:44;7.87;;;6.57;;
11988;SDS011;6054;50.966;7.094;2023-01-23T11:51:35;7.17;;;5.73;;
11988;SDS011;6054;50.966;7.094;2023-01-23T11:54:13;7.20;;;5.50;;
11988;SDS011;6054;50.966;7.094;2023-01-23T11:57:01;5.83;;;5.07;;
11988;SDS011;6054;50.966;7.094;2023-01-23T11:59:51;4.97;;;4.47;;
11988;SDS011;6054;50.966;7.094;2023-01-23T12:05:56;4.50;;;3.97;;
11988;SDS011;6054;50.966;7.094;2023-01-23T12:08:35;4.27;;;3.87;;
11988;SDS011;6054;50.966;7.094;2023-01-23T12:11:11;4.93;;;4.33;;
11988;SDS011;6054;50.966;7.094;2023-01-23T12:16:36;4.97;;;4.40;;
11988;SDS011;6054;50.966;7.094;2023-01-23T12:19:18;4.20;;;3.83;;
11988;SDS011;6054;50.966;7.094;2023-01-23T12:21:54;4.53;;;3.67;;
11988;SDS011;6054;50.966;7.094;2023-01-23T12:24:27;3.87;;;3.50;;
11988;SDS011;6054;50.966;7.094;2023-01-23T12:27:08;4.10;;;3.70;;
11988;SDS011;6054;50.966;7.094;2023-01-23T12:29:51;3.77;;;3.47;;
11988;SDS011;6054;50.966;7.094;2023-01-23T12:32:33;4.00;;;3.60;;
11988;SDS011;6054;50.966;7.094;2023-01-23T12:35:15;4.13;;;3.80;;
11988;SDS011;6054;50.966;7.094;2023-01-23T12:37:57;4.20;;;3.80;;
11988;SDS011;6054;50.966;7.094;2023-01-23T12:40:36;3.87;;;3.57;;
11988;SDS011;6054;50.966;7.094;2023-01-23T12:43:10;3.10;;;2.90;;
11988;SDS011;6054;50.966;7.094;2023-01-23T12:45:41;3.53;;;3.23;;
11988;SDS011;6054;50.966;7.094;2023-01-23T12:48:15;3.37;;;3.13;;
11988;SDS011;6054;50.966;7.094;2023-01-23T12:50:45;4.00;;;3.60;;
11988;SDS011;6054;50.966;7.094;2023-01-23T12:53:18;4.00;;;3.60;;
11988;SDS011;6054;50.966;7.094;2023-01-23T12:55:51;3.70;;;3.40;;
11988;SDS011;6054;50.966;7.094;2023-01-23T12:58:24;3.17;;;2.97;;
11988;SDS011;6054;50.966;7.094;2023-01-23T13:00:57;3.57;;;3.27;;
11988;SDS011;6054;50.966;7.094;2023-01-23T13:03:44;4.33;;;3.60;;
11988;SDS011;6054;50.966;7.094;2023-01-23T13:06:23;4.43;;;2.90;;
11988;SDS011;6054;50.966;7.094;2023-01-23T13:09:00;3.50;;;3.20;;
11988;SDS011;6054;50.966;7.094;2023-01-23T13:11:33;3.50;;;3.20;;
11988;SDS011;6054;50.966;7.094;2023-01-23T13:14:17;3.70;;;3.40;;
11988;SDS011;6054;50.966;7.094;2023-01-23T13:16:47;3.77;;;3.40;;
11988;SDS011;6054;50.966;7.094;2023-01-23T13:19:20;5.90;;;3.43;;
11988;SDS011;6054;50.966;7.094;2023-01-23T13:22:15;3.43;;;3.13;;
11988;SDS011;6054;50.966;7.094;2023-01-23T13:24:49;3.50;;;3.20;;
11988;SDS011;6054;50.966;7.094;2023-01-23T13:27:37;3.57;;;3.27;;
11988;SDS011;6054;50.966;7.094;2023-01-23T13:36:13;3.40;;;3.10;;
11988;SDS011;6054;50.966;7.094;2023-01-23T13:39:04;3.53;;;3.23;;
11988;SDS011;6054;50.966;7.094;2023-01-23T13:41:48;3.63;;;3.33;;
11988;SDS011;6054;50.966;7.094;2023-01-23T13:44:20;3.60;;;3.30;;
11988;SDS011;6054;50.966;7.094;2023-01-23T13:50:04;4.07;;;3.50;;
11988;SDS011;6054;50.966;7.094;2023-01-23T13:52:35;3.97;;;3.57;;
11988;SDS011;6054;50.966;7.094;2023-01-23T13:55:22;3.60;;;3.30;;
11988;SDS011;6054;50.966;7.094;2023-01-23T13:58:09;4.03;;;3.63;;
11988;SDS011;6054;50.966;7.094;2023-01-23T14:00:37;4.17;;;3.47;;
11988;SDS011;6054;50.966;7.094;2023-01-23T14:03:21;3.80;;;3.50;;
11988;SDS011;6054;50.966;7.094;2023-01-23T14:06:10;3.80;;;3.40;;
11988;SDS011;6054;50.966;7.094;2023-01-23T14:08:44;3.70;;;3.40;;
11988;SDS011;6054;50.966;7.094;2023-01-23T14:11:13;4.00;;;3.35;;
11988;SDS011;6054;50.966;7.094;2023-01-23T14:13:45;3.73;;;3.43;;
11988;SDS011;6054;50.966;7.094;2023-01-23T14:16:13;3.90;;;3.60;;
11988;SDS011;6054;50.966;7.094;2023-01-23T14:18:49;5.53;;;3.37;;
11988;SDS011;6054;50.966;7.094;2023-01-23T14:21:20;6.03;;;3.80;;
11988;SDS011;6054;50.966;7.094;2023-01-23T14:23:49;4.30;;;3.90;;
11988;SDS011;6054;50.966;7.094;2023-01-23T14:26:18;3.97;;;3.57;;
11988;SDS011;6054;50.966;7.094;2023-01-23T14:28:53;3.30;;;2.97;;
11988;SDS011;6054;50.966;7.094;2023-01-23T14:31:22;7.00;;;3.80;;
11988;SDS011;6054;50.966;7.094;2023-01-23T14:33:54;6.00;;;3.90;;
11988;SDS011;6054;50.966;7.094;2023-01-23T14:36:26;4.10;;;3.70;;
11988;SDS011;6054;50.966;7.094;2023-01-23T14:38:53;4.67;;;3.77;;
11988;SDS011;6054;50.966;7.094;2023-01-23T14:41:22;4.10;;;3.70;;
11988;SDS011;6054;50.966;7.094;2023-01-23T14:43:52;4.83;;;4.33;;
11988;SDS011;6054;50.966;7.094;2023-01-23T14:46:21;4.43;;;4.03;;
11988;SDS011;6054;50.966;7.094;2023-01-23T14:49:00;4.50;;;4.10;;
11988;SDS011;6054;50.966;7.094;2023-01-23T14:51:30;6.80;;;5.37;;
11988;SDS011;6054;50.966;7.094;2023-01-23T14:53:57;7.97;;;5.87;;
11988;SDS011;6054;50.966;7.094;2023-01-23T14:56:27;8.27;;;4.73;;
11988;SDS011;6054;50.966;7.094;2023-01-23T14:58:56;6.27;;;5.37;;
11988;SDS011;6054;50.966;7.094;2023-01-23T15:01:24;7.23;;;5.97;;
11988;SDS011;6054;50.966;7.094;2023-01-23T15:03:56;6.20;;;5.50;;
11988;SDS011;6054;50.966;7.094;2023-01-23T15:06:26;6.67;;;5.43;;
11988;SDS011;6054;50.966;7.094;2023-01-23T15:08:55;5.70;;;5.17;;
11988;SDS011;6054;50.966;7.094;2023-01-23T15:11:31;8.40;;;6.07;;
11988;SDS011;6054;50.966;7.094;2023-01-23T15:13:59;9.83;;;5.87;;
11988;SDS011;6054;50.966;7.094;2023-01-23T15:16:28;7.17;;;6.37;;